sensor_id;sensor_type;location;lat;lon;timestamp;pressure;altitude;pressure_sealevel;temperature;humidity
49030;BME280;43337;52.070;4.508;2023-06-14T00:02:01;101616.56;;;20.52;75.38
49030;BME280;43337;52.070;4.508;2023-06-14T00:04:26;101621.91;;;20.52;75.69
49030;BME280;43337;52.070;4.508;2023-06-14T00:06:51;101613.03;;;20.51;75.57
49030;BME280;43337;52.070;4.508;2023-06-14T00:09:18;101625.56;;;20.51;76.32
49030;BME280;43337;52.070;4.508;2023-06-14T00:11:43;101615.25;;;20.44;76.58
49030;BME280;43337;52.070;4.508;2023-06-14T00:14:09;101620.84;;;20.41;76.78
49030;BME280;43337;52.070;4.508;2023-06-14T00:16:35;101627.78;;;20.44;77.42
49030;BME280;43337;52.070;4.508;2023-06-14T00:19:02;101635.16;;;20.40;77.54
49030;BME280;43337;52.070;4.508;2023-06-14T00:21:31;101627.13;;;20.40;78.04
49030;BME280;43337;52.070;4.508;2023-06-14T00:23:58;101621.41;;;20.34;78.41
49030;BME280;43337;52.070;4.508;2023-06-14T00:26:23;101633.16;;;20.31;78.88
49030;BME280;43337;52.070;4.508;2023-06-14T00:28:49;101628.22;;;20.25;79.32
49030;BME280;43337;52.070;4.508;2023-06-14T00:31:14;101631.22;;;20.20;79.51
49030;BME280;43337;52.070;4.508;2023-06-14T00:33:40;101620.00;;;20.15;79.92
49030;BME280;43337;52.070;4.508;2023-06-14T00:36:05;101622.91;;;20.12;79.59
49030;BME280;43337;52.070;4.508;2023-06-14T00:38:30;101629.84;;;20.15;79.13
49030;BME280;43337;52.070;4.508;2023-06-14T00:40:55;101623.94;;;20.10;79.08
49030;BME280;43337;52.070;4.508;2023-06-14T00:43:21;101623.00;;;20.11;79.30
49030;BME280;43337;52.070;4.508;2023-06-14T00:45:46;101624.19;;;20.07;79.01
49030;BME280;43337;52.070;4.508;2023-06-14T00:48:13;101620.88;;;20.03;78.58
49030;BME280;43337;52.070;4.508;2023-06-14T00:50:39;101624.81;;;19.97;78.76
49030;BME280;43337;52.070;4.508;2023-06-14T00:53:05;101619.91;;;19.91;78.53
49030;BME280;43337;52.070;4.508;2023-06-14T00:55:31;101630.50;;;19.93;78.14
49030;BME280;43337;52.070;4.508;2023-06-14T00:57:58;101623.66;;;19.89;77.89
49030;BME280;43337;52.070;4.508;2023-06-14T01:00:23;101623.31;;;19.81;77.72
49030;BME280;43337;52.070;4.508;2023-06-14T01:02:49;101624.06;;;19.83;77.66
49030;BME280;43337;52.070;4.508;2023-06-14T01:05:17;101627.06;;;19.78;77.22
49030;BME280;43337;52.070;4.508;2023-06-14T01:13:20;101625.75;;;19.71;77.02
49030;BME280;43337;52.070;4.508;2023-06-14T01:15:47;101624.25;;;19.67;75.30
49030;BME280;43337;52.070;4.508;2023-06-14T01:18:12;101624.66;;;19.61;75.23
49030;BME280;43337;52.070;4.508;2023-06-14T01:20:45;101616.31;;;19.52;75.08
49030;BME280;43337;52.070;4.508;2023-06-14T01:23:15;101627.06;;;19.51;75.24
49030;BME280;43337;52.070;4.508;2023-06-14T01:25:41;101633.47;;;19.48;75.26
49030;BME280;43337;52.070;4.508;2023-06-14T01:28:10;101606.94;;;19.33;75.34
49030;BME280;43337;52.070;4.508;2023-06-14T01:30:40;101624.28;;;19.40;75.36
49030;BME280;43337;52.070;4.508;2023-06-14T01:33:12;101622.78;;;19.36;75.00
49030;BME280;43337;52.070;4.508;2023-06-14T01:35:39;101626.50;;;19.33;75.11
49030;BME280;43337;52.070;4.508;2023-06-14T01:38:06;101605.09;;;19.20;74.91
49030;BME280;43337;52.070;4.508;2023-06-14T01:40:33;101632.34;;;19.25;75.00
49030;BME280;43337;52.070;4.508;2023-06-14T01:43:00;101628.38;;;19.18;75.22
49030;BME280;43337;52.070;4.508;2023-06-14T01:45:27;101639.06;;;19.18;75.45
49030;BME280;43337;52.070;4.508;2023-06-14T01:47:53;101635.81;;;19.13;75.40
49030;BME280;43337;52.070;4.508;2023-06-14T01:50:20;101636.13;;;19.09;75.86
49030;BME280;43337;52.070;4.508;2023-06-14T01:52:45;101632.91;;;19.03;76.11
49030;BME280;43337;52.070;4.508;2023-06-14T01:55:11;101618.06;;;18.99;75.74
49030;BME280;43337;52.070;4.508;2023-06-14T01:57:36;101615.91;;;18.92;75.96
49030;BME280;43337;52.070;4.508;2023-06-14T02:00:02;101612.25;;;18.93;75.63
49030;BME280;43337;52.070;4.508;2023-06-14T02:02:29;101630.16;;;18.91;76.04
49030;BME280;43337;52.070;4.508;2023-06-14T02:04:54;101632.28;;;18.86;76.01
49030;BME280;43337;52.070;4.508;2023-06-14T02:07:22;101628.88;;;18.84;76.19
49030;BME280;43337;52.070;4.508;2023-06-14T02:09:48;101634.41;;;18.81;76.05
49030;BME280;43337;52.070;4.508;2023-06-14T02:12:13;101603.72;;;18.59;76.10
49030;BME280;43337;52.070;4.508;2023-06-14T02:14:38;101626.13;;;18.71;76.23
49030;BME280;43337;52.070;4.508;2023-06-14T02:17:04;101631.63;;;18.68;76.36
49030;BME280;43337;52.070;4.508;2023-06-14T02:19:31;101620.59;;;18.60;76.63
49030;BME280;43337;52.070;4.508;2023-06-14T02:21:57;101628.69;;;18.58;76.90
49030;BME280;43337;52.070;4.508;2023-06-14T02:24:22;101633.47;;;18.53;77.53
49030;BME280;43337;52.070;4.508;2023-06-14T02:26:48;101615.66;;;18.39;77.95
49030;BME280;43337;52.070;4.508;2023-06-14T02:29:14;101627.09;;;18.41;78.65
49030;BME280;43337;52.070;4.508;2023-06-14T02:31:40;101630.69;;;18.40;79.00
49030;BME280;43337;52.070;4.508;2023-06-14T02:34:06;101625.84;;;18.33;79.04
49030;BME280;43337;52.070;4.508;2023-06-14T02:36:34;101641.94;;;18.31;79.66
49030;BME280;43337;52.070;4.508;2023-06-14T02:39:00;101644.06;;;18.26;80.04
49030;BME280;43337;52.070;4.508;2023-06-14T02:41:25;101633.19;;;18.15;80.30
49030;BME280;43337;52.070;4.508;2023-06-14T02:43:52;101648.03;;;18.19;80.57
49030;BME280;43337;52.070;4.508;2023-06-14T02:46:17;101645.56;;;18.16;80.63
49030;BME280;43337;52.070;4.508;2023-06-14T02:48:43;101632.03;;;18.04;80.93
49030;BME280;43337;52.070;4.508;2023-06-14T02:51:08;101639.91;;;18.06;80.90
49030;BME280;43337;52.070;4.508;2023-06-14T02:53:35;101628.19;;;17.94;81.13
49030;BME280;43337;52.070;4.508;2023-06-14T02:56:01;101633.47;;;17.96;81.03
49030;BME280;43337;52.070;4.508;2023-06-14T02:58:29;101644.00;;;17.97;80.98
49030;BME280;43337;52.070;4.508;2023-06-14T03:00:54;101646.97;;;17.93;81.12
49030;BME280;43337;52.070;4.508;2023-06-14T03:03:19;101643.81;;;17.86;81.25
49030;BME280;43337;52.070;4.508;2023-06-14T03:05:47;101656.94;;;17.89;81.29
49030;BME280;43337;52.070;4.508;2023-06-14T03:08:15;101637.97;;;17.79;81.20
49030;BME280;43337;52.070;4.508;2023-06-14T03:10:48;101644.25;;;17.78;81.26
49030;BME280;43337;52.070;4.508;2023-06-14T03:13:15;101666.25;;;17.82;81.17
49030;BME280;43337;52.070;4.508;2023-06-14T03:15:46;101664.63;;;17.79;81.58
49030;BME280;43337;52.070;4.508;2023-06-14T03:18:13;101655.03;;;17.77;81.65
49030;BME280;43337;52.070;4.508;2023-06-14T03:20:40;101648.47;;;17.67;81.78
49030;BME280;43337;52.070;4.508;2023-06-14T03:23:06;101668.75;;;17.69;82.23
49030;BME280;43337;52.070;4.508;2023-06-14T03:25:32;101668.75;;;17.69;82.26
49030;BME280;43337;52.070;4.508;2023-06-14T03:28:04;101674.25;;;17.66;82.53
49030;BME280;43337;52.070;4.508;2023-06-14T03:30:32;101672.84;;;17.61;82.54
49030;BME280;43337;52.070;4.508;2023-06-14T03:32:58;101668.63;;;17.56;82.85
49030;BME280;43337;52.070;4.508;2023-06-14T03:35:26;101678.31;;;17.57;82.63
49030;BME280;43337;52.070;4.508;2023-06-14T03:37:52;101678.50;;;17.54;82.39
49030;BME280;43337;52.070;4.508;2023-06-14T03:40:18;101676.28;;;17.47;82.58
49030;BME280;43337;52.070;4.508;2023-06-14T03:42:45;101689.44;;;17.50;82.94
49030;BME280;43337;52.070;4.508;2023-06-14T03:45:10;101668.22;;;17.32;82.27
49030;BME280;43337;52.070;4.508;2023-06-14T03:47:36;101688.91;;;17.43;82.83
49030;BME280;43337;52.070;4.508;2023-06-14T03:50:05;101688.22;;;17.40;83.09
49030;BME280;43337;52.070;4.508;2023-06-14T03:52:31;101691.91;;;17.37;82.84
49030;BME280;43337;52.070;4.508;2023-06-14T03:54:56;101687.81;;;17.31;82.71
49030;BME280;43337;52.070;4.508;2023-06-14T03:57:23;101696.66;;;17.32;82.74
49030;BME280;43337;52.070;4.508;2023-06-14T03:59:49;101698.56;;;17.30;83.10
49030;BME280;43337;52.070;4.508;2023-06-14T04:02:15;101681.22;;;17.23;83.17
49030;BME280;43337;52.070;4.508;2023-06-14T04:04:41;101697.69;;;17.29;83.05
49030;BME280;43337;52.070;4.508;2023-06-14T04:07:10;101706.63;;;17.28;83.13
49030;BME280;43337;52.070;4.508;2023-06-14T04:09:37;101699.69;;;17.26;83.30
49030;BME280;43337;52.070;4.508;2023-06-14T04:12:02;101705.00;;;17.26;83.18
49030;BME280;43337;52.070;4.508;2023-06-14T04:14:28;101705.16;;;17.23;83.19
49030;BME280;43337;52.070;4.508;2023-06-14T04:16:53;101714.88;;;17.24;83.28
49030;BME280;43337;52.070;4.508;2023-06-14T04:19:19;101713.22;;;17.21;83.33
49030;BME280;43337;52.070;4.508;2023-06-14T04:21:44;101709.72;;;17.21;83.58
49030;BME280;43337;52.070;4.508;2023-06-14T04:24:10;101711.69;;;17.17;83.58
49030;BME280;43337;52.070;4.508;2023-06-14T04:26:42;101711.00;;;17.14;83.76
49030;BME280;43337;52.070;4.508;2023-06-14T04:29:10;101708.09;;;17.18;83.77
49030;BME280;43337;52.070;4.508;2023-06-14T04:31:42;101697.00;;;17.10;83.72
49030;BME280;43337;52.070;4.508;2023-06-14T04:34:09;101712.53;;;17.18;83.65
49030;BME280;43337;52.070;4.508;2023-06-14T04:36:42;101712.63;;;17.16;84.04
49030;BME280;43337;52.070;4.508;2023-06-14T04:39:15;101702.25;;;17.12;84.25
49030;BME280;43337;52.070;4.508;2023-06-14T04:41:40;101709.72;;;17.21;83.76
49030;BME280;43337;52.070;4.508;2023-06-14T04:44:06;101708.97;;;17.19;83.63
49030;BME280;43337;52.070;4.508;2023-06-14T04:46:32;101721.03;;;17.24;83.69
49030;BME280;43337;52.070;4.508;2023-06-14T04:48:58;101710.41;;;17.24;83.60
49030;BME280;43337;52.070;4.508;2023-06-14T04:51:27;101715.66;;;17.26;83.41
49030;BME280;43337;52.070;4.508;2023-06-14T04:53:58;101707.84;;;17.23;83.63
49030;BME280;43337;52.070;4.508;2023-06-14T04:56:24;101721.63;;;17.29;83.06
49030;BME280;43337;52.070;4.508;2023-06-14T04:58:51;101708.25;;;17.31;83.09
49030;BME280;43337;52.070;4.508;2023-06-14T05:01:18;101709.97;;;17.32;82.71
49030;BME280;43337;52.070;4.508;2023-06-14T05:03:43;101711.88;;;17.30;82.95
49030;BME280;43337;52.070;4.508;2023-06-14T05:06:10;101708.00;;;17.36;82.46
49030;BME280;43337;52.070;4.508;2023-06-14T05:08:36;101715.81;;;17.39;82.65
49030;BME280;43337;52.070;4.508;2023-06-14T05:11:02;101708.09;;;17.34;82.97
49030;BME280;43337;52.070;4.508;2023-06-14T05:13:27;101723.53;;;17.43;82.73
49030;BME280;43337;52.070;4.508;2023-06-14T05:15:53;101720.84;;;17.43;82.72
49030;BME280;43337;52.070;4.508;2023-06-14T05:18:18;101724.09;;;17.48;82.64
49030;BME280;43337;52.070;4.508;2023-06-14T05:20:45;101727.38;;;17.53;82.68
49030;BME280;43337;52.070;4.508;2023-06-14T05:23:11;101723.44;;;17.61;82.79
49030;BME280;43337;52.070;4.508;2023-06-14T05:25:42;101718.00;;;17.62;82.50
49030;BME280;43337;52.070;4.508;2023-06-14T05:28:07;101715.75;;;17.70;82.05
49030;BME280;43337;52.070;4.508;2023-06-14T05:30:33;101727.06;;;17.90;81.76
49030;BME280;43337;52.070;4.508;2023-06-14T05:32:58;101728.94;;;18.03;81.30
49030;BME280;43337;52.070;4.508;2023-06-14T05:35:24;101714.19;;;18.12;80.58
49030;BME280;43337;52.070;4.508;2023-06-14T05:37:52;101732.59;;;18.31;80.41
49030;BME280;43337;52.070;4.508;2023-06-14T05:40:17;101728.13;;;18.46;80.02
49030;BME280;43337;52.070;4.508;2023-06-14T05:42:42;101732.03;;;18.54;79.01
49030;BME280;43337;52.070;4.508;2023-06-14T05:45:08;101732.41;;;18.63;78.53
49030;BME280;43337;52.070;4.508;2023-06-14T05:47:33;101741.44;;;18.76;78.37
49030;BME280;43337;52.070;4.508;2023-06-14T05:49:59;101731.41;;;18.80;77.57
49030;BME280;43337;52.070;4.508;2023-06-14T05:52:24;101732.25;;;18.94;76.48
49030;BME280;43337;52.070;4.508;2023-06-14T05:54:50;101743.75;;;19.09;75.84
49030;BME280;43337;52.070;4.508;2023-06-14T05:57:15;101737.94;;;19.17;75.64
49030;BME280;43337;52.070;4.508;2023-06-14T05:59:41;101746.31;;;19.25;74.33
49030;BME280;43337;52.070;4.508;2023-06-14T06:02:06;101732.75;;;19.28;73.76
49030;BME280;43337;52.070;4.508;2023-06-14T06:04:32;101743.41;;;19.42;73.40
49030;BME280;43337;52.070;4.508;2023-06-14T06:06:57;101748.91;;;19.54;72.71
49030;BME280;43337;52.070;4.508;2023-06-14T06:09:22;101741.44;;;19.59;72.28
49030;BME280;43337;52.070;4.508;2023-06-14T06:11:48;101739.47;;;19.75;72.04
49030;BME280;43337;52.070;4.508;2023-06-14T06:14:13;101744.78;;;19.89;71.25
49030;BME280;43337;52.070;4.508;2023-06-14T06:16:39;101737.19;;;19.96;70.43
49030;BME280;43337;52.070;4.508;2023-06-14T06:19:04;101745.78;;;20.14;70.11
49030;BME280;43337;52.070;4.508;2023-06-14T06:21:29;101711.44;;;20.08;69.52
49030;BME280;43337;52.070;4.508;2023-06-14T06:23:54;101722.25;;;20.19;68.71
49030;BME280;43337;52.070;4.508;2023-06-14T06:26:22;101750.50;;;20.48;67.50
49030;BME280;43337;52.070;4.508;2023-06-14T06:28:47;101755.25;;;20.58;66.93
49030;BME280;43337;52.070;4.508;2023-06-14T06:31:12;101753.75;;;20.66;66.28
49030;BME280;43337;52.070;4.508;2023-06-14T06:33:38;101758.47;;;20.76;65.85
49030;BME280;43337;52.070;4.508;2023-06-14T06:36:05;101761.22;;;20.87;64.90
49030;BME280;43337;52.070;4.508;2023-06-14T06:38:30;101763.59;;;20.91;64.80
49030;BME280;43337;52.070;4.508;2023-06-14T06:40:55;101767.84;;;20.94;63.75
49030;BME280;43337;52.070;4.508;2023-06-14T06:43:22;101768.72;;;21.07;63.02
49030;BME280;43337;52.070;4.508;2023-06-14T06:45:47;101773.50;;;21.15;62.69
49030;BME280;43337;52.070;4.508;2023-06-14T06:48:13;101783.66;;;21.23;62.39
49030;BME280;43337;52.070;4.508;2023-06-14T06:50:38;101774.22;;;21.30;61.73
49030;BME280;43337;52.070;4.508;2023-06-14T06:53:04;101770.25;;;21.35;61.23
49030;BME280;43337;52.070;4.508;2023-06-14T06:55:30;101785.56;;;21.46;61.10
49030;BME280;43337;52.070;4.508;2023-06-14T06:57:56;101771.47;;;21.55;61.16
49030;BME280;43337;52.070;4.508;2023-06-14T07:00:21;101790.69;;;21.73;60.27
49030;BME280;43337;52.070;4.508;2023-06-14T07:02:47;101779.00;;;21.74;59.81
49030;BME280;43337;52.070;4.508;2023-06-14T07:05:12;101779.19;;;21.84;59.54
49030;BME280;43337;52.070;4.508;2023-06-14T07:07:38;101782.00;;;21.93;59.28
49030;BME280;43337;52.070;4.508;2023-06-14T07:10:04;101797.91;;;22.08;58.40
49030;BME280;43337;52.070;4.508;2023-06-14T07:12:31;101796.94;;;22.09;58.10
49030;BME280;43337;52.070;4.508;2023-06-14T07:14:59;101804.44;;;22.16;57.28
49030;BME280;43337;52.070;4.508;2023-06-14T07:17:24;101804.34;;;22.18;56.12
49030;BME280;43337;52.070;4.508;2023-06-14T07:19:50;101797.50;;;22.14;55.88
49030;BME280;43337;52.070;4.508;2023-06-14T07:22:16;101802.22;;;22.10;56.29
49030;BME280;43337;52.070;4.508;2023-06-14T07:24:41;101794.03;;;22.12;56.29
49030;BME280;43337;52.070;4.508;2023-06-14T07:27:07;101798.97;;;22.18;56.68
49030;BME280;43337;52.070;4.508;2023-06-14T07:29:33;101791.19;;;22.26;55.83
49030;BME280;43337;52.070;4.508;2023-06-14T07:31:58;101801.59;;;22.42;55.45
49030;BME280;43337;52.070;4.508;2023-06-14T07:34:23;101808.22;;;22.49;55.48
49030;BME280;43337;52.070;4.508;2023-06-14T07:36:49;101817.38;;;22.58;54.90
49030;BME280;43337;52.070;4.508;2023-06-14T07:39:14;101798.56;;;22.58;55.20
49030;BME280;43337;52.070;4.508;2023-06-14T07:41:40;101815.69;;;22.68;54.91
49030;BME280;43337;52.070;4.508;2023-06-14T07:44:05;101811.28;;;22.78;55.33
49030;BME280;43337;52.070;4.508;2023-06-14T07:46:31;101806.78;;;22.90;54.27
49030;BME280;43337;52.070;4.508;2023-06-14T07:48:56;101798.88;;;23.00;53.72
49030;BME280;43337;52.070;4.508;2023-06-14T07:51:22;101809.63;;;23.11;53.08
49030;BME280;43337;52.070;4.508;2023-06-14T07:53:48;101805.81;;;23.13;53.29
49030;BME280;43337;52.070;4.508;2023-06-14T07:56:14;101817.06;;;23.19;53.20
49030;BME280;43337;52.070;4.508;2023-06-14T07:58:39;101822.69;;;23.27;53.04
49030;BME280;43337;52.070;4.508;2023-06-14T08:01:04;101811.56;;;23.31;52.76
49030;BME280;43337;52.070;4.508;2023-06-14T08:03:32;101817.41;;;23.48;52.84
49030;BME280;43337;52.070;4.508;2023-06-14T08:05:57;101814.56;;;23.60;52.18
49030;BME280;43337;52.070;4.508;2023-06-14T08:08:23;101814.31;;;23.75;51.80
49030;BME280;43337;52.070;4.508;2023-06-14T08:10:48;101814.06;;;23.78;51.88
49030;BME280;43337;52.070;4.508;2023-06-14T08:13:14;101818.94;;;23.84;52.22
49030;BME280;43337;52.070;4.508;2023-06-14T08:15:40;101814.47;;;23.94;51.81
49030;BME280;43337;52.070;4.508;2023-06-14T08:18:05;101802.81;;;24.05;51.20
49030;BME280;43337;52.070;4.508;2023-06-14T08:20:30;101792.00;;;24.16;51.04
49030;BME280;43337;52.070;4.508;2023-06-14T08:22:57;101823.44;;;24.48;50.93
49030;BME280;43337;52.070;4.508;2023-06-14T08:25:23;101816.13;;;24.59;50.06
49030;BME280;43337;52.070;4.508;2023-06-14T08:27:48;101818.63;;;24.72;49.51
49030;BME280;43337;52.070;4.508;2023-06-14T08:30:15;101818.56;;;24.83;48.92
49030;BME280;43337;52.070;4.508;2023-06-14T08:32:40;101825.66;;;24.94;48.65
49030;BME280;43337;52.070;4.508;2023-06-14T08:35:06;101828.94;;;24.98;48.68
49030;BME280;43337;52.070;4.508;2023-06-14T08:37:32;101827.09;;;24.98;48.16
49030;BME280;43337;52.070;4.508;2023-06-14T08:40:00;101824.28;;;25.00;47.98
49030;BME280;43337;52.070;4.508;2023-06-14T08:42:26;101817.06;;;25.00;48.66
49030;BME280;43337;52.070;4.508;2023-06-14T08:44:51;101814.53;;;25.08;48.34
49030;BME280;43337;52.070;4.508;2023-06-14T08:47:17;101808.66;;;25.15;47.81
49030;BME280;43337;52.070;4.508;2023-06-14T08:49:46;101824.72;;;25.36;47.61
49030;BME280;43337;52.070;4.508;2023-06-14T08:52:13;101824.47;;;25.39;46.87
49030;BME280;43337;52.070;4.508;2023-06-14T08:54:41;101829.03;;;25.48;45.73
49030;BME280;43337;52.070;4.508;2023-06-14T08:57:13;101821.66;;;25.50;44.02
49030;BME280;43337;52.070;4.508;2023-06-14T08:59:45;101823.94;;;25.45;43.39
49030;BME280;43337;52.070;4.508;2023-06-14T09:02:12;101821.03;;;25.37;43.02
49030;BME280;43337;52.070;4.508;2023-06-14T09:04:39;101813.53;;;25.40;43.14
49030;BME280;43337;52.070;4.508;2023-06-14T09:07:05;101830.19;;;25.55;42.89
49030;BME280;43337;52.070;4.508;2023-06-14T09:09:31;101789.84;;;25.44;42.71
49030;BME280;43337;52.070;4.508;2023-06-14T09:11:57;101839.31;;;25.73;42.10
49030;BME280;43337;52.070;4.508;2023-06-14T09:14:25;101833.41;;;25.79;42.33
49030;BME280;43337;52.070;4.508;2023-06-14T09:16:54;101827.72;;;25.92;42.46
49030;BME280;43337;52.070;4.508;2023-06-14T09:19:25;101830.84;;;26.17;39.83
49030;BME280;43337;52.070;4.508;2023-06-14T09:21:52;101831.53;;;26.28;41.34
49030;BME280;43337;52.070;4.508;2023-06-14T09:24:18;101831.97;;;26.34;40.80
49030;BME280;43337;52.070;4.508;2023-06-14T09:26:47;101834.66;;;26.43;40.40
49030;BME280;43337;52.070;4.508;2023-06-14T09:29:12;101834.69;;;26.53;39.72
49030;BME280;43337;52.070;4.508;2023-06-14T09:31:37;101836.78;;;26.59;39.30
49030;BME280;43337;52.070;4.508;2023-06-14T09:34:03;101838.91;;;26.65;39.20
49030;BME280;43337;52.070;4.508;2023-06-14T09:36:31;101841.19;;;26.70;38.66
49030;BME280;43337;52.070;4.508;2023-06-14T09:38:58;101827.53;;;26.71;39.78
49030;BME280;43337;52.070;4.508;2023-06-14T09:41:40;101832.59;;;26.84;37.88
49030;BME280;43337;52.070;4.508;2023-06-14T09:44:07;101823.78;;;26.82;38.83
49030;BME280;43337;52.070;4.508;2023-06-14T09:46:34;101834.72;;;26.90;38.75
49030;BME280;43337;52.070;4.508;2023-06-14T09:49:00;101832.72;;;26.92;38.06
49030;BME280;43337;52.070;4.508;2023-06-14T09:51:27;101829.84;;;26.94;37.57
49030;BME280;43337;52.070;4.508;2023-06-14T09:53:55;101840.09;;;27.00;37.19
49030;BME280;43337;52.070;4.508;2023-06-14T09:56:28;101834.69;;;27.00;36.30
49030;BME280;43337;52.070;4.508;2023-06-14T09:58:56;101831.44;;;26.96;36.44
49030;BME280;43337;52.070;4.508;2023-06-14T10:01:24;101830.84;;;27.02;36.14
49030;BME280;43337;52.070;4.508;2023-06-14T10:03:50;101845.34;;;27.01;35.62
49030;BME280;43337;52.070;4.508;2023-06-14T10:06:20;101831.25;;;26.98;35.34
49030;BME280;43337;52.070;4.508;2023-06-14T10:08:51;101837.50;;;27.08;35.31
49030;BME280;43337;52.070;4.508;2023-06-14T10:11:17;101826.25;;;27.13;35.49
49030;BME280;43337;52.070;4.508;2023-06-14T10:13:42;101822.06;;;27.28;34.90
49030;BME280;43337;52.070;4.508;2023-06-14T10:16:13;101835.44;;;27.30;34.32
49030;BME280;43337;52.070;4.508;2023-06-14T10:18:50;101832.38;;;27.42;34.56
49030;BME280;43337;52.070;4.508;2023-06-14T10:21:28;101823.13;;;27.45;34.69
49030;BME280;43337;52.070;4.508;2023-06-14T10:24:01;101824.91;;;27.54;33.53
49030;BME280;43337;52.070;4.508;2023-06-14T10:26:28;101830.22;;;27.46;34.22
49030;BME280;43337;52.070;4.508;2023-06-14T10:29:05;101823.31;;;27.34;31.60
49030;BME280;43337;52.070;4.508;2023-06-14T10:31:49;101832.47;;;27.23;32.72
49030;BME280;43337;52.070;4.508;2023-06-14T10:34:26;101824.31;;;27.33;32.53
49030;BME280;43337;52.070;4.508;2023-06-14T10:37:05;101821.66;;;27.50;31.58
49030;BME280;43337;52.070;4.508;2023-06-14T10:39:31;101822.06;;;27.73;32.93
49030;BME280;43337;52.070;4.508;2023-06-14T10:41:57;101825.91;;;27.81;32.42
49030;BME280;43337;52.070;4.508;2023-06-14T10:46:55;101822.19;;;27.82;31.09
49030;BME280;43337;52.070;4.508;2023-06-14T10:49:37;101836.00;;;27.79;30.63
49030;BME280;43337;52.070;4.508;2023-06-14T10:52:09;101829.75;;;27.78;32.56
49030;BME280;43337;52.070;4.508;2023-06-14T10:55:01;101837.03;;;27.95;29.83
49030;BME280;43337;52.070;4.508;2023-06-14T10:57:27;101843.78;;;27.91;31.84
49030;BME280;43337;52.070;4.508;2023-06-14T10:59:53;101847.31;;;27.92;31.92
49030;BME280;43337;52.070;4.508;2023-06-14T11:04:52;101832.06;;;28.09;30.86
49030;BME280;43337;52.070;4.508;2023-06-14T11:07:51;101832.25;;;28.07;30.57
49030;BME280;43337;52.070;4.508;2023-06-14T11:12:54;101811.78;;;28.31;31.06
49030;BME280;43337;52.070;4.508;2023-06-14T11:15:19;101814.06;;;28.61;31.71
49030;BME280;43337;52.070;4.508;2023-06-14T11:17:52;101802.66;;;28.76;30.79
49030;BME280;43337;52.070;4.508;2023-06-14T11:20:18;101818.69;;;28.95;30.95
49030;BME280;43337;52.070;4.508;2023-06-14T11:22:45;101813.00;;;29.06;30.58
49030;BME280;43337;52.070;4.508;2023-06-14T11:25:14;101816.41;;;29.16;30.43
49030;BME280;43337;52.070;4.508;2023-06-14T11:27:43;101827.47;;;29.23;29.29
49030;BME280;43337;52.070;4.508;2023-06-14T11:30:09;101803.88;;;29.15;30.15
49030;BME280;43337;52.070;4.508;2023-06-14T11:32:36;101805.25;;;29.19;30.17
49030;BME280;43337;52.070;4.508;2023-06-14T11:35:02;101805.66;;;29.33;29.84
49030;BME280;43337;52.070;4.508;2023-06-14T11:37:30;101816.03;;;29.46;29.72
49030;BME280;43337;52.070;4.508;2023-06-14T11:39:56;101806.53;;;29.50;29.81
49030;BME280;43337;52.070;4.508;2023-06-14T11:42:22;101801.94;;;29.42;29.54
49030;BME280;43337;52.070;4.508;2023-06-14T11:44:49;101779.38;;;29.33;29.76
49030;BME280;43337;52.070;4.508;2023-06-14T11:47:15;101807.72;;;29.47;29.09
49030;BME280;43337;52.070;4.508;2023-06-14T11:49:40;101803.88;;;29.58;29.17
49030;BME280;43337;52.070;4.508;2023-06-14T11:52:07;101804.06;;;29.64;28.76
49030;BME280;43337;52.070;4.508;2023-06-14T11:54:32;101801.69;;;29.70;28.91
49030;BME280;43337;52.070;4.508;2023-06-14T11:56:58;101808.81;;;29.79;28.18
49030;BME280;43337;52.070;4.508;2023-06-14T11:59:24;101808.66;;;29.72;28.43
49030;BME280;43337;52.070;4.508;2023-06-14T12:01:50;101804.22;;;29.71;28.24
49030;BME280;43337;52.070;4.508;2023-06-14T12:04:28;101817.97;;;29.78;28.24
49030;BME280;43337;52.070;4.508;2023-06-14T12:06:54;101819.00;;;29.77;28.65
49030;BME280;43337;52.070;4.508;2023-06-14T12:09:21;101804.75;;;29.75;28.71
49030;BME280;43337;52.070;4.508;2023-06-14T12:11:59;101807.31;;;29.76;27.77
49030;BME280;43337;52.070;4.508;2023-06-14T12:14:30;101813.41;;;29.86;28.19
49030;BME280;43337;52.070;4.508;2023-06-14T12:17:04;101822.75;;;29.92;27.71
49030;BME280;43337;52.070;4.508;2023-06-14T12:19:31;101806.97;;;29.87;28.41
49030;BME280;43337;52.070;4.508;2023-06-14T12:21:59;101816.63;;;29.90;28.76
49030;BME280;43337;52.070;4.508;2023-06-14T12:24:27;101810.22;;;29.91;28.42
49030;BME280;43337;52.070;4.508;2023-06-14T12:26:53;101815.31;;;30.02;28.83
49030;BME280;43337;52.070;4.508;2023-06-14T12:29:19;101821.91;;;30.08;28.27
49030;BME280;43337;52.070;4.508;2023-06-14T12:31:45;101820.75;;;30.10;28.78
49030;BME280;43337;52.070;4.508;2023-06-14T12:34:10;101821.59;;;30.11;28.55
49030;BME280;43337;52.070;4.508;2023-06-14T12:36:36;101813.91;;;29.90;28.54
49030;BME280;43337;52.070;4.508;2023-06-14T12:39:07;101806.81;;;29.89;28.68
49030;BME280;43337;52.070;4.508;2023-06-14T12:41:33;101814.63;;;30.00;28.79
49030;BME280;43337;52.070;4.508;2023-06-14T12:43:58;101816.16;;;30.11;28.78
49030;BME280;43337;52.070;4.508;2023-06-14T12:46:24;101818.72;;;30.21;28.55
49030;BME280;43337;52.070;4.508;2023-06-14T12:48:50;101816.19;;;30.27;28.17
49030;BME280;43337;52.070;4.508;2023-06-14T12:51:16;101823.81;;;30.40;28.10
49030;BME280;43337;52.070;4.508;2023-06-14T12:53:41;101816.16;;;30.44;27.61
49030;BME280;43337;52.070;4.508;2023-06-14T12:56:07;101813.63;;;30.42;27.85
49030;BME280;43337;52.070;4.508;2023-06-14T12:58:32;101806.13;;;30.44;27.88
49030;BME280;43337;52.070;4.508;2023-06-14T13:00:57;101801.03;;;30.49;27.67
49030;BME280;43337;52.070;4.508;2023-06-14T13:03:23;101793.41;;;30.45;27.50